Xingtai, China
Current Conditions -  °F | °C
As of 4:00 PM on Friday 19 Dec 2014 (Local Time) from ZBSJ Reporting Station
Clear Clear  
Wind Chill: 32°   Ceiling: Unl
Heat Index: 41°   Visibility: 6mi
Dew Point:   Wind: 18mph
Humidity: 21%   Direction: 350°N
Pressure: 30.27"   Gusts: 29mph
Location:  37.07°N, 114.49°E
Report Text: ZBSJ 190800Z 35008G13MPS CAVOK 05/M16 Q1025 NOSIG
Loading
Personal Weather Stations






























Interactive Weather Map New forecast layout! Learn more

10-Day Weather Forecast

Advertisements
Track Severe Weather on mobile